createdAt,value
2023-03-02T00:03:25.112Z,93846.89
2023-03-02T00:08:33.499Z,93837.94
2023-03-02T00:13:41.378Z,93841.09
2023-03-02T00:18:48.554Z,93837.36
2023-03-02T00:23:55.889Z,93831.61
2023-03-02T00:29:02.864Z,93832.77
2023-03-02T00:34:09.847Z,93826.55
2023-03-02T00:39:18.423Z,93823.58
2023-03-02T00:44:25.283Z,93828.71
2023-03-02T00:49:32.389Z,93829.20
2023-03-02T00:54:39.334Z,93825.97
2023-03-02T00:59:46.628Z,93823.89
2023-03-02T01:04:55.017Z,93814.84
2023-03-02T01:10:01.790Z,93815.16
2023-03-02T01:15:11.387Z,93811.06
2023-03-02T01:20:19.846Z,93813.72
2023-03-02T01:25:26.900Z,93799.17
2023-03-02T01:30:33.916Z,93794.61
2023-03-02T01:35:40.879Z,93789.61
2023-03-02T01:40:47.926Z,93786.77
2023-03-02T01:45:58.422Z,93782.48
2023-03-02T01:51:07.010Z,93786.56
2023-03-02T01:56:25.768Z,93791.16
2023-03-02T02:01:36.667Z,93778.73
2023-03-02T02:07:05.460Z,93784.38
2023-03-02T02:12:19.061Z,93777.69
2023-03-02T02:17:26.762Z,93779.44
2023-03-02T02:22:57.134Z,93774.20
2023-03-02T02:28:10.009Z,93780.89
2023-03-02T02:33:20.029Z,93778.56
2023-03-02T02:38:27.610Z,93777.66
2023-03-02T02:43:35.000Z,93771.11
2023-03-02T02:48:42.236Z,93774.92
2023-03-02T02:54:01.857Z,93778.08
2023-03-02T02:59:29.213Z,93773.06
2023-03-02T03:04:36.004Z,93776.70
2023-03-02T03:09:42.722Z,93777.40
2023-03-02T03:14:50.055Z,93778.34
2023-03-02T03:19:58.329Z,93769.79
2023-03-02T03:25:06.616Z,93773.06
2023-03-02T03:30:15.939Z,93766.80
2023-03-02T03:35:22.775Z,93771.61
2023-03-02T03:40:29.481Z,93769.36
2023-03-02T03:45:36.255Z,93772.19
2023-03-02T03:50:42.869Z,93771.88
2023-03-02T03:55:50.951Z,93770.95
2023-03-02T04:00:57.826Z,93776.19
2023-03-02T04:06:04.724Z,93770.38
2023-03-02T04:11:11.412Z,93770.27
2023-03-02T04:16:20.120Z,93763.32
2023-03-02T04:21:27.626Z,93761.50
2023-03-02T04:26:35.593Z,93757.15
2023-03-02T04:31:43.073Z,93746.59
2023-03-02T04:36:50.012Z,93752.41
2023-03-02T04:41:56.762Z,93749.47
2023-03-02T04:47:03.414Z,93746.88
2023-03-02T04:52:10.217Z,93745.14
2023-03-02T04:57:16.996Z,93741.14
2023-03-02T05:02:24.334Z,93747.09
2023-03-02T05:07:31.099Z,93748.63
2023-03-02T05:12:39.376Z,93741.50
2023-03-02T05:17:46.128Z,93739.31
2023-03-02T05:22:52.825Z,93736.13
2023-03-02T05:27:59.820Z,93735.15
2023-03-02T05:33:06.540Z,93739.30
2023-03-02T05:38:13.337Z,93736.67
2023-03-02T05:43:23.694Z,93734.02
2023-03-02T05:48:32.033Z,93745.21
2023-03-02T05:53:38.732Z,93750.03
2023-03-02T05:58:45.540Z,93748.92
2023-03-02T06:03:52.296Z,93748.97
2023-03-02T06:08:58.993Z,93750.17
2023-03-02T06:14:05.706Z,93752.38
2023-03-02T06:19:12.404Z,93757.98
2023-03-02T06:24:19.213Z,93758.09
2023-03-02T06:29:26.004Z,93753.57
2023-03-02T06:34:35.187Z,93760.92
2023-03-02T06:39:41.014Z,93764.16
2023-03-02T06:44:48.608Z,93762.46
2023-03-02T06:49:55.294Z,93764.02
2023-03-02T06:55:02.059Z,93757.28
2023-03-02T07:00:16.802Z,93763.58
2023-03-02T07:05:24.788Z,93599.55
2023-03-02T07:10:31.692Z,93761.80
2023-03-02T07:15:42.426Z,93762.52
2023-03-02T07:20:49.142Z,93760.55
2023-03-02T07:25:56.137Z,93765.52
2023-03-02T07:31:02.900Z,93759.73
2023-03-02T07:36:10.597Z,93750.69
2023-03-02T07:41:17.292Z,93752.95
2023-03-02T07:46:24.040Z,93759.55
2023-03-02T07:51:31.112Z,93754.45
2023-03-02T07:56:38.202Z,93759.85
2023-03-02T08:01:45.070Z,93761.59
2023-03-02T08:06:52.628Z,93764.00
2023-03-02T08:11:59.339Z,93760.23
2023-03-02T08:17:07.948Z,93753.44
2023-03-02T08:22:15.195Z,93749.07
2023-03-02T08:27:21.966Z,93751.70
2023-03-02T08:32:29.419Z,93752.26
2023-03-02T08:37:36.709Z,93766.45
2023-03-02T08:42:43.384Z,93754.53
2023-03-02T08:47:50.100Z,93749.70
2023-03-02T08:52:56.783Z,93748.23
2023-03-02T08:58:04.121Z,93756.89
2023-03-02T09:03:10.812Z,93752.55
2023-03-02T09:08:17.534Z,93754.14
2023-03-02T09:13:24.309Z,93755.68
2023-03-02T09:23:58.762Z,93755.77
2023-03-02T09:29:05.553Z,93754.75
2023-03-02T09:34:12.690Z,93759.33
2023-03-02T09:39:20.082Z,93748.48
2023-03-02T09:44:56.549Z,93755.33
2023-03-02T09:50:38.921Z,93753.31
2023-03-02T09:55:47.383Z,93748.78
2023-03-02T10:00:54.545Z,93746.66
2023-03-02T10:06:01.931Z,93744.55
2023-03-02T10:11:44.902Z,93747.19
2023-03-02T10:17:21.585Z,93745.61
2023-03-02T10:22:41.444Z,93742.87
2023-03-02T10:27:55.979Z,93743.72
2023-03-02T10:33:07.451Z,93749.42
2023-03-02T10:38:18.832Z,93754.34
2023-03-02T10:43:37.849Z,93755.50
2023-03-02T10:49:01.918Z,93753.98
2023-03-02T10:54:17.612Z,93745.00
2023-03-02T10:59:49.157Z,93741.48
2023-03-02T11:05:24.450Z,93743.09
2023-03-02T11:10:44.305Z,93740.84
2023-03-02T11:15:54.541Z,93741.47
2023-03-02T11:21:14.369Z,93740.98
2023-03-02T11:26:34.288Z,93735.43
2023-03-02T11:31:51.645Z,93733.83
2023-03-02T11:37:09.156Z,93735.48
2023-03-02T11:42:35.448Z,93726.84
2023-03-02T11:47:49.265Z,93727.17
2023-03-02T11:53:05.210Z,93711.34
2023-03-02T11:58:16.362Z,93709.39
2023-03-02T12:03:31.130Z,93709.39
2023-03-02T12:08:44.748Z,93712.09
2023-03-02T12:14:26.045Z,93704.19
2023-03-02T12:19:45.667Z,93700.64
2023-03-02T12:24:56.941Z,93694.98
2023-03-02T12:30:28.469Z,93690.87
2023-03-02T12:35:37.069Z,93684.09
2023-03-02T12:41:17.768Z,93677.65
2023-03-02T12:46:40.048Z,93673.13
2023-03-02T12:52:02.988Z,93674.50
2023-03-02T12:57:19.913Z,93674.90
2023-03-02T13:02:31.136Z,93668.22
2023-03-02T13:07:47.707Z,93668.34
2023-03-02T13:12:54.897Z,93667.47
2023-03-02T13:18:03.098Z,93657.78
2023-03-02T13:23:13.122Z,93655.26
2023-03-02T13:28:35.229Z,93644.42
2023-03-02T13:33:48.539Z,93649.69
2023-03-02T13:39:01.282Z,93640.20
2023-03-02T13:44:21.090Z,93631.78
2023-03-02T13:49:34.241Z,93626.95
2023-03-02T13:54:42.771Z,93623.92
2023-03-02T13:59:50.213Z,93620.67
2023-03-02T14:04:58.020Z,93618.33
2023-03-02T14:10:05.820Z,93607.97
2023-03-02T14:15:17.168Z,93600.48
2023-03-02T14:20:24.556Z,93611.17
2023-03-02T14:25:31.504Z,93603.75
2023-03-02T14:30:43.601Z,93600.05
2023-03-02T14:35:53.872Z,93597.42
2023-03-02T14:41:01.203Z,93601.50
2023-03-02T14:46:08.537Z,93594.81
2023-03-02T14:51:32.113Z,93598.49
2023-03-02T14:56:39.831Z,93586.30
2023-03-02T15:01:46.658Z,93587.26
2023-03-02T15:06:53.807Z,93593.83
2023-03-02T15:12:01.045Z,93584.44
2023-03-02T15:17:09.308Z,93584.06
2023-03-02T15:22:16.406Z,93582.12
2023-03-02T15:27:24.243Z,93577.95
2023-03-02T15:32:31.317Z,93578.06
2023-03-02T15:37:38.573Z,93580.48
2023-03-02T15:42:45.413Z,93577.66
2023-03-02T15:47:52.289Z,93575.42
2023-03-02T15:52:59.269Z,93574.11
2023-03-02T15:58:07.683Z,93577.25
2023-03-02T16:03:15.452Z,93575.16
2023-03-02T16:08:22.417Z,93569.52
2023-03-02T16:13:30.933Z,93571.83
2023-03-02T16:18:37.857Z,93572.70
2023-03-02T16:23:44.998Z,93574.84
2023-03-02T16:28:51.947Z,93572.22
2023-03-02T16:33:59.929Z,93574.63
2023-03-02T16:39:08.653Z,93570.06
2023-03-02T16:44:16.694Z,93574.00
2023-03-02T16:49:23.557Z,93578.19
2023-03-02T16:54:30.582Z,93583.61
2023-03-02T16:59:37.628Z,93582.94
2023-03-02T17:04:44.461Z,93590.12
2023-03-02T17:09:51.202Z,93593.16
2023-03-02T17:14:57.987Z,93596.39
2023-03-02T17:20:05.932Z,93607.69
2023-03-02T17:25:14.909Z,93612.54
2023-03-02T17:30:21.786Z,93614.69
2023-03-02T17:35:28.643Z,93615.25
2023-03-02T17:40:36.219Z,93612.00
2023-03-02T17:45:43.005Z,93615.69
2023-03-02T17:50:49.748Z,93618.64
2023-03-02T17:55:56.438Z,93619.95
2023-03-02T18:01:03.237Z,93620.91
2023-03-02T18:06:10.189Z,93620.77
2023-03-02T18:11:18.411Z,93620.91
2023-03-02T18:16:28.332Z,93619.91
2023-03-02T18:21:36.918Z,93614.02
2023-03-02T18:26:43.863Z,93617.57
2023-03-02T18:31:53.530Z,93616.26
2023-03-02T18:37:00.468Z,93611.17
2023-03-02T18:42:08.564Z,93614.20
2023-03-02T18:47:18.767Z,93611.06
2023-03-02T18:52:25.550Z,93608.59
2023-03-02T18:57:33.930Z,93614.98
2023-03-02T19:02:41.202Z,93606.05
2023-03-02T19:07:50.562Z,93610.55
2023-03-02T19:12:57.276Z,93611.90
2023-03-02T19:18:04.062Z,93610.32
2023-03-02T19:23:11.019Z,93605.58
2023-03-02T19:28:18.135Z,93596.56
2023-03-02T19:33:25.216Z,93600.03
2023-03-02T19:38:32.058Z,93601.99
2023-03-02T19:43:40.884Z,93613.06
2023-03-02T19:48:47.863Z,93609.09
2023-03-02T19:53:55.177Z,93608.70
2023-03-02T19:59:02.554Z,93615.97
2023-03-02T20:04:09.374Z,93614.73
2023-03-02T20:09:17.602Z,93616.22
2023-03-02T20:14:33.430Z,93616.69
2023-03-02T20:19:33.090Z,93619.20
2023-03-02T20:24:40.790Z,93620.93
2023-03-02T20:29:48.417Z,93627.03
2023-03-02T20:34:55.644Z,93624.64
2023-03-02T20:40:02.816Z,93620.19
2023-03-02T20:45:12.339Z,93621.73
2023-03-02T20:50:23.849Z,93619.20
2023-03-02T20:55:31.365Z,93617.48
2023-03-02T21:00:40.343Z,93605.77
2023-03-02T21:05:47.849Z,93607.96
2023-03-02T21:10:54.708Z,93606.66
2023-03-02T21:16:02.421Z,93598.61
2023-03-02T21:21:09.508Z,93600.58
2023-03-02T21:26:18.057Z,93593.98
2023-03-02T21:31:25.515Z,93591.58
2023-03-02T21:36:32.942Z,93585.88
2023-03-02T21:41:40.664Z,93581.03
2023-03-02T21:46:48.086Z,93575.33
2023-03-02T21:51:55.409Z,93575.21
2023-03-02T21:57:02.356Z,93570.36
2023-03-02T22:02:09.889Z,93570.14
2023-03-02T22:07:16.766Z,93565.01
2023-03-02T22:12:25.412Z,93565.07
2023-03-02T22:17:32.754Z,93558.15
2023-03-02T22:22:39.692Z,93553.11
2023-03-02T22:27:48.514Z,93383.47
2023-03-02T22:32:56.334Z,93557.30
2023-03-02T22:38:07.599Z,93548.83
2023-03-02T22:43:27.038Z,93554.59
2023-03-02T22:48:37.591Z,93563.45
2023-03-02T22:53:57.467Z,93539.34
2023-03-02T22:59:29.127Z,93538.61
2023-03-02T23:04:41.169Z,93375.61
2023-03-02T23:09:48.643Z,93530.44
2023-03-02T23:15:00.476Z,93530.20
2023-03-02T23:20:11.346Z,93531.69
2023-03-02T23:25:19.874Z,93525.59
2023-03-02T23:30:27.273Z,93522.23
2023-03-02T23:35:34.729Z,93518.16
2023-03-02T23:40:42.223Z,93518.61
2023-03-02T23:45:49.137Z,93512.75
2023-03-02T23:50:56.237Z,93505.68
2023-03-02T23:56:03.520Z,93509.13
